createdAt,value
2023-02-28T00:00:38.707Z,6.72
2023-02-28T00:03:05.242Z,6.43
2023-02-28T00:05:31.919Z,5.43
2023-02-28T00:07:58.380Z,6.20
2023-02-28T00:10:28.248Z,5.55
2023-02-28T00:12:57.801Z,5.57
2023-02-28T00:15:27.468Z,5.80
2023-02-28T00:17:53.866Z,7.53
2023-02-28T00:20:20.907Z,6.60
2023-02-28T00:22:50.241Z,9.00
2023-02-28T00:25:20.271Z,8.02
2023-02-28T00:27:47.402Z,6.93
2023-02-28T00:30:16.547Z,7.43
2023-02-28T00:32:43.086Z,5.75
2023-02-28T00:35:10.787Z,8.88
2023-02-28T00:37:37.577Z,6.50
2023-02-28T00:40:07.874Z,6.45
2023-02-28T00:42:35.824Z,9.60
2023-02-28T00:45:04.698Z,8.48
2023-02-28T00:47:31.785Z,6.95
2023-02-28T00:49:58.349Z,7.28
2023-02-28T00:52:24.941Z,7.32
2023-02-28T00:54:51.354Z,6.22
2023-02-28T00:57:17.848Z,6.57
2023-02-28T00:59:44.273Z,6.65
2023-02-28T01:02:10.715Z,5.75
2023-02-28T01:04:37.297Z,7.60
2023-02-28T01:07:03.866Z,7.72
2023-02-28T01:09:31.080Z,8.75
2023-02-28T01:11:57.482Z,6.22
2023-02-28T01:14:23.884Z,8.25
2023-02-28T01:16:50.288Z,6.97
2023-02-28T01:19:16.703Z,7.60
2023-02-28T01:21:43.074Z,6.10
2023-02-28T01:24:09.629Z,6.95
2023-02-28T01:26:36.609Z,8.00
2023-02-28T01:29:03.155Z,6.82
2023-02-28T01:31:30.022Z,10.90
2023-02-28T01:33:56.656Z,9.23
2023-02-28T01:36:25.149Z,6.75
2023-02-28T01:38:52.096Z,6.80
2023-02-28T01:41:22.477Z,6.93
2023-02-28T01:46:16.014Z,7.22
2023-02-28T01:48:50.984Z,7.70
2023-02-28T01:51:27.512Z,6.97
2023-02-28T01:54:06.438Z,6.80
2023-02-28T01:56:36.956Z,7.00
2023-02-28T01:59:04.256Z,7.47
2023-02-28T02:01:32.207Z,6.47
2023-02-28T02:04:02.092Z,6.40
2023-02-28T02:06:36.881Z,6.78
2023-02-28T02:09:06.776Z,6.10
2023-02-28T02:11:33.832Z,6.88
2023-02-28T02:14:30.929Z,8.48
2023-02-28T02:17:17.519Z,8.07
2023-02-28T02:20:18.177Z,7.90
2023-02-28T02:23:17.651Z,7.40
2023-02-28T02:25:48.143Z,7.07
2023-02-28T02:31:23.941Z,9.35
2023-02-28T02:34:08.904Z,9.60
2023-02-28T02:37:15.523Z,7.82
2023-02-28T02:40:04.818Z,7.85
2023-02-28T02:42:58.107Z,8.80
2023-02-28T02:45:39.230Z,10.20
2023-02-28T02:48:10.047Z,6.85
2023-02-28T02:50:42.584Z,8.32
2023-02-28T02:53:11.350Z,7.57
2023-02-28T02:55:43.088Z,8.32
2023-02-28T02:58:15.211Z,8.00
2023-02-28T03:00:49.925Z,7.30
2023-02-28T03:03:21.598Z,6.47
2023-02-28T03:05:51.874Z,8.10
2023-02-28T03:08:18.668Z,7.25
2023-02-28T03:10:47.327Z,7.30
2023-02-28T03:13:29.072Z,6.80
2023-02-28T03:16:04.583Z,6.63
2023-02-28T03:18:46.678Z,9.30
2023-02-28T03:21:19.014Z,10.63
2023-02-28T03:23:54.443Z,7.88
2023-02-28T03:26:26.053Z,8.13
2023-02-28T03:29:06.407Z,8.55
2023-02-28T03:31:42.549Z,8.48
2023-02-28T03:34:19.629Z,11.20
2023-02-28T03:36:49.822Z,9.25
2023-02-28T03:39:37.852Z,7.32
2023-02-28T03:42:21.062Z,9.68
2023-02-28T03:44:59.274Z,8.55
2023-02-28T03:47:35.949Z,7.40
2023-02-28T03:50:11.835Z,7.03
2023-02-28T03:52:46.184Z,7.30
2023-02-28T03:55:16.412Z,6.78
2023-02-28T03:58:08.699Z,5.05
2023-02-28T04:00:44.495Z,5.70
2023-02-28T04:03:10.945Z,6.80
2023-02-28T04:05:51.443Z,5.80
2023-02-28T04:08:17.946Z,5.68
2023-02-28T04:10:49.287Z,7.80
2023-02-28T04:13:15.663Z,7.25
2023-02-28T04:15:42.168Z,7.40
2023-02-28T04:18:09.127Z,7.35
2023-02-28T04:20:35.495Z,6.80
2023-02-28T04:23:01.878Z,8.38
2023-02-28T04:25:28.300Z,7.63
2023-02-28T04:27:54.693Z,7.10
2023-02-28T04:30:21.133Z,7.72
2023-02-28T04:32:47.543Z,8.10
2023-02-28T04:35:14.005Z,7.38
2023-02-28T04:37:40.368Z,7.32
2023-02-28T04:40:07.752Z,6.47
2023-02-28T04:42:36.585Z,6.93
2023-02-28T04:45:04.834Z,5.97
2023-02-28T04:47:31.928Z,7.70
2023-02-28T04:49:58.440Z,7.32
2023-02-28T04:52:24.844Z,8.57
2023-02-28T04:54:51.221Z,6.93
2023-02-28T04:57:17.582Z,7.93
2023-02-28T04:59:43.979Z,8.13
2023-02-28T05:02:10.340Z,9.52
2023-02-28T05:04:37.338Z,7.35
2023-02-28T05:07:04.151Z,6.82
2023-02-28T05:09:31.118Z,6.13
2023-02-28T05:11:57.763Z,6.78
2023-02-28T05:14:24.196Z,6.28
2023-02-28T05:16:50.562Z,6.75
2023-02-28T05:19:16.988Z,6.82
2023-02-28T05:21:52.244Z,6.97
2023-02-28T05:24:23.666Z,6.63
2023-02-28T05:26:52.746Z,6.32
2023-02-28T05:29:19.364Z,7.05
2023-02-28T05:31:46.137Z,8.93
2023-02-28T05:34:13.538Z,6.20
2023-02-28T05:36:40.352Z,8.00
2023-02-28T05:39:08.432Z,7.10
2023-02-28T05:41:34.850Z,6.15
2023-02-28T05:44:01.708Z,7.85
2023-02-28T05:46:28.212Z,9.48
2023-02-28T05:48:54.774Z,6.15
2023-02-28T05:51:21.226Z,6.18
2023-02-28T05:53:49.170Z,8.38
2023-02-28T05:56:15.628Z,7.18
2023-02-28T05:58:42.028Z,6.25
2023-02-28T06:01:33.170Z,6.40
2023-02-28T06:04:01.723Z,8.77
2023-02-28T06:06:28.280Z,5.55
2023-02-28T06:08:55.082Z,8.05
2023-02-28T06:11:30.355Z,6.40
2023-02-28T06:14:01.495Z,6.10
2023-02-28T06:16:29.579Z,5.85
2023-02-28T06:18:58.781Z,6.78
2023-02-28T06:21:25.640Z,8.15
2023-02-28T06:23:52.002Z,7.30
2023-02-28T06:26:18.405Z,8.30
2023-02-28T06:28:44.810Z,8.70
2023-02-28T06:31:14.619Z,6.70
2023-02-28T06:33:41.406Z,8.27
2023-02-28T06:36:09.003Z,5.30
2023-02-28T06:38:36.003Z,7.78
2023-02-28T06:41:03.043Z,7.38
2023-02-28T06:43:31.756Z,7.15
2023-02-28T06:46:00.579Z,8.15
2023-02-28T06:48:28.439Z,8.68
2023-02-28T06:51:09.467Z,6.95
2023-02-28T06:53:36.287Z,7.97
2023-02-28T06:56:09.156Z,8.10
2023-02-28T06:58:35.762Z,6.75
2023-02-28T07:01:02.867Z,10.57
2023-02-28T07:03:29.351Z,8.02
2023-02-28T07:05:57.385Z,8.65
2023-02-28T07:08:25.118Z,7.70
2023-02-28T07:10:58.215Z,8.60
2023-02-28T07:13:24.707Z,7.97
2023-02-28T07:15:56.104Z,8.82
2023-02-28T07:18:22.890Z,8.38
2023-02-28T07:20:49.275Z,7.43
2023-02-28T07:23:15.628Z,6.15
2023-02-28T07:25:42.056Z,9.10
2023-02-28T07:28:08.434Z,7.22
2023-02-28T07:30:34.997Z,8.50
2023-02-28T07:33:01.368Z,7.88
2023-02-28T07:35:27.841Z,7.88
2023-02-28T07:37:54.216Z,9.00
2023-02-28T07:40:20.626Z,7.57
2023-02-28T07:42:47.034Z,8.05
2023-02-28T07:45:13.498Z,8.30
2023-02-28T07:47:40.215Z,7.35
2023-02-28T07:50:08.759Z,9.40
2023-02-28T07:52:35.249Z,7.57
2023-02-28T07:55:01.670Z,6.90
2023-02-28T07:57:28.106Z,8.02
2023-02-28T07:59:54.500Z,7.30
2023-02-28T08:02:20.985Z,7.22
2023-02-28T08:04:48.886Z,8.05
2023-02-28T08:07:16.667Z,8.13
2023-02-28T08:09:43.993Z,7.03
2023-02-28T08:12:11.624Z,8.68
2023-02-28T08:14:38.106Z,8.85
2023-02-28T08:17:05.310Z,8.27
2023-02-28T08:19:31.789Z,8.50
2023-02-28T08:21:58.448Z,8.07
2023-02-28T08:24:24.900Z,7.95
2023-02-28T08:26:51.608Z,8.75
2023-02-28T08:29:18.023Z,6.65
2023-02-28T08:31:44.476Z,5.80
2023-02-28T08:34:14.256Z,6.40
2023-02-28T08:36:41.471Z,6.55
2023-02-28T08:39:08.290Z,4.88
2023-02-28T08:41:34.733Z,6.25
2023-02-28T08:44:01.274Z,7.28
2023-02-28T08:46:27.659Z,6.13
2023-02-28T08:48:55.795Z,4.70
2023-02-28T08:51:27.408Z,7.28
2023-02-28T08:53:55.789Z,5.88
2023-02-28T08:56:22.798Z,5.60
2023-02-28T08:58:50.940Z,5.72
2023-02-28T09:01:20.102Z,4.93
2023-02-28T09:03:48.323Z,4.70
2023-02-28T09:06:16.696Z,4.72
2023-02-28T09:08:43.465Z,4.25
2023-02-28T09:11:10.628Z,4.38
2023-02-28T09:13:37.880Z,4.85
2023-02-28T09:16:06.430Z,6.20
2023-02-28T09:18:35.328Z,4.40
2023-02-28T09:21:07.901Z,5.15
2023-02-28T09:23:34.551Z,5.00
2023-02-28T09:26:00.987Z,5.10
2023-02-28T09:28:27.627Z,5.13
2023-02-28T09:30:55.540Z,5.78
2023-02-28T09:33:24.097Z,5.30
2023-02-28T09:35:51.456Z,5.07
2023-02-28T09:38:18.719Z,4.82
2023-02-28T09:40:50.890Z,5.45
2023-02-28T09:43:21.049Z,4.70
2023-02-28T09:46:28.478Z,4.20
2023-02-28T09:48:56.932Z,3.40
2023-02-28T09:51:50.035Z,4.10
2023-02-28T09:54:24.886Z,3.80
2023-02-28T09:56:57.738Z,4.03
2023-02-28T09:59:45.479Z,3.97
2023-02-28T10:02:42.332Z,4.65
2023-02-28T10:05:13.364Z,4.85
2023-02-28T10:08:06.017Z,4.63
2023-02-28T10:10:43.240Z,4.72
2023-02-28T10:13:37.124Z,5.10
2023-02-28T10:16:11.508Z,4.47
2023-02-28T10:18:52.566Z,5.18
2023-02-28T10:21:24.388Z,5.07
2023-02-28T10:23:57.306Z,4.60
2023-02-28T10:26:24.889Z,3.65
2023-02-28T10:28:53.961Z,4.30
2023-02-28T10:31:21.465Z,5.15
2023-02-28T10:33:48.861Z,5.25
2023-02-28T10:36:18.661Z,3.88
2023-02-28T10:38:46.944Z,4.28
2023-02-28T10:41:28.657Z,4.65
2023-02-28T10:44:14.178Z,4.63
2023-02-28T10:46:42.056Z,4.90
2023-02-28T10:49:17.981Z,4.60
2023-02-28T10:51:45.744Z,5.82
2023-02-28T10:54:17.589Z,4.00
2023-02-28T10:56:44.047Z,4.43
2023-02-28T10:59:16.549Z,4.50
2023-02-28T11:01:46.433Z,4.30
2023-02-28T11:04:42.722Z,4.65
2023-02-28T11:07:23.016Z,4.68
2023-02-28T11:09:53.563Z,4.25
2023-02-28T11:12:27.785Z,4.10
2023-02-28T11:15:00.944Z,4.00
2023-02-28T11:17:30.718Z,4.22
2023-02-28T11:20:07.963Z,4.22
2023-02-28T11:22:40.015Z,3.70
2023-02-28T11:25:31.056Z,4.10
2023-02-28T11:28:04.512Z,4.32
2023-02-28T11:30:35.173Z,4.10
2023-02-28T11:33:17.928Z,3.65
2023-02-28T11:35:44.390Z,4.28
2023-02-28T11:38:13.940Z,4.70
2023-02-28T11:40:50.759Z,3.67
2023-02-28T11:43:31.281Z,3.90
2023-02-28T11:46:22.384Z,3.55
2023-02-28T11:49:26.408Z,3.75
2023-02-28T11:52:15.816Z,4.78
2023-02-28T11:55:13.869Z,4.25
2023-02-28T11:57:46.199Z,4.95
2023-02-28T12:00:30.974Z,7.13
2023-02-28T12:03:31.498Z,4.93
2023-02-28T12:08:54.894Z,4.70
2023-02-28T12:11:40.215Z,5.80
2023-02-28T12:14:27.646Z,4.97
2023-02-28T12:17:20.865Z,4.70
2023-02-28T12:20:05.617Z,5.28
2023-02-28T12:22:49.612Z,5.18
2023-02-28T12:25:31.351Z,5.20
2023-02-28T12:27:58.036Z,5.22
2023-02-28T12:30:38.004Z,5.20
2023-02-28T12:33:08.641Z,5.38
2023-02-28T12:35:41.049Z,5.28
2023-02-28T12:38:15.576Z,5.18
2023-02-28T12:40:55.109Z,5.40
2023-02-28T12:43:23.643Z,5.33
2023-02-28T12:45:58.016Z,5.28
2023-02-28T12:48:54.194Z,5.40
2023-02-28T12:51:21.282Z,6.00
2023-02-28T12:54:09.543Z,5.25
2023-02-28T12:56:45.186Z,5.00
2023-02-28T12:59:18.221Z,5.00
2023-02-28T13:02:02.121Z,4.80
2023-02-28T13:04:55.503Z,5.10
2023-02-28T13:07:44.728Z,4.63
2023-02-28T13:10:11.481Z,4.82
2023-02-28T13:12:48.779Z,5.50
2023-02-28T13:15:25.711Z,5.22
2023-02-28T13:17:54.353Z,6.57
2023-02-28T13:20:48.488Z,4.90
2023-02-28T13:23:48.068Z,5.40
2023-02-28T13:26:14.506Z,6.30
2023-02-28T13:29:02.820Z,16.08
2023-02-28T13:31:29.583Z,5.00
2023-02-28T13:33:58.070Z,5.72
2023-02-28T13:36:31.092Z,4.15
2023-02-28T13:39:01.507Z,4.20
2023-02-28T13:44:07.594Z,4.80
2023-02-28T13:46:37.163Z,5.38
2023-02-28T13:49:28.986Z,4.18
2023-02-28T13:52:07.649Z,4.70
2023-02-28T13:54:54.508Z,4.28
2023-02-28T13:57:34.623Z,4.20
2023-02-28T14:00:17.978Z,4.25
2023-02-28T14:03:14.718Z,4.38
2023-02-28T14:05:42.108Z,4.18
2023-02-28T14:08:23.229Z,4.07
2023-02-28T14:11:07.049Z,4.07
2023-02-28T14:13:49.333Z,4.30
2023-02-28T14:16:21.159Z,4.60
2023-02-28T14:19:04.532Z,4.70
2023-02-28T14:21:36.564Z,4.00
2023-02-28T14:24:33.459Z,4.47
2023-02-28T14:27:27.400Z,4.07
2023-02-28T14:30:22.370Z,6.68
2023-02-28T14:33:13.513Z,4.20
2023-02-28T14:36:17.326Z,4.68
2023-02-28T14:39:01.571Z,4.30
2023-02-28T14:41:38.024Z,4.30
2023-02-28T14:44:18.907Z,4.88
2023-02-28T14:46:48.379Z,4.32
2023-02-28T14:49:35.803Z,4.77
2023-02-28T14:52:09.071Z,4.32
2023-02-28T14:54:35.537Z,5.10
2023-02-28T14:57:02.058Z,4.45
2023-02-28T14:59:31.880Z,4.22
2023-02-28T15:02:15.371Z,4.30
2023-02-28T15:04:42.973Z,4.28
2023-02-28T15:07:16.290Z,3.88
2023-02-28T15:09:42.724Z,4.30
2023-02-28T15:12:16.628Z,3.80
2023-02-28T15:14:45.057Z,3.60
2023-02-28T15:17:19.645Z,4.47
2023-02-28T15:19:51.727Z,3.88
2023-02-28T15:22:21.606Z,3.65
2023-02-28T15:24:52.232Z,3.60
2023-02-28T15:27:24.885Z,3.67
2023-02-28T15:29:56.179Z,3.35
2023-02-28T15:32:35.310Z,3.55
2023-02-28T15:35:19.418Z,3.55
2023-02-28T15:37:55.191Z,3.80
2023-02-28T15:40:27.638Z,4.22
2023-02-28T15:43:04.489Z,4.28
2023-02-28T15:45:39.487Z,4.28
2023-02-28T15:48:28.597Z,11.07
2023-02-28T15:50:58.087Z,9.70
2023-02-28T15:53:29.440Z,5.50
2023-02-28T15:56:00.819Z,5.40
2023-02-28T15:58:27.732Z,5.05
2023-02-28T16:01:17.765Z,5.15
2023-02-28T16:03:52.664Z,5.35
2023-02-28T16:06:45.382Z,5.00
2023-02-28T16:09:17.104Z,5.00
2023-02-28T16:11:55.933Z,5.30
2023-02-28T16:14:26.001Z,5.80
2023-02-28T16:16:55.172Z,6.75
2023-02-28T16:19:22.852Z,7.47
2023-02-28T16:21:49.675Z,6.72
2023-02-28T16:24:16.345Z,5.72
2023-02-28T16:26:46.400Z,6.53
2023-02-28T16:29:34.547Z,6.15
2023-02-28T16:32:01.765Z,6.18
2023-02-28T16:34:28.322Z,5.97
2023-02-28T16:36:54.732Z,6.35
2023-02-28T16:39:21.709Z,6.18
2023-02-28T16:41:50.048Z,5.70
2023-02-28T16:44:30.847Z,5.32
2023-02-28T16:46:57.290Z,5.95
2023-02-28T16:49:23.888Z,5.38
2023-02-28T16:51:50.252Z,5.80
2023-02-28T16:54:16.669Z,5.63
2023-02-28T16:56:46.165Z,5.85
2023-02-28T16:59:14.263Z,6.10
2023-02-28T17:01:40.794Z,8.10
2023-02-28T17:04:07.432Z,8.55
2023-02-28T17:06:33.887Z,8.30
2023-02-28T17:09:00.372Z,7.00
2023-02-28T17:11:27.826Z,7.93
2023-02-28T17:13:54.929Z,10.00
2023-02-28T17:16:31.478Z,11.32
2023-02-28T17:19:01.464Z,10.20
2023-02-28T17:21:28.119Z,11.70
2023-02-28T17:23:54.531Z,11.00
2023-02-28T17:26:22.168Z,11.15
2023-02-28T17:28:49.795Z,11.35
2023-02-28T17:31:16.264Z,10.93
2023-02-28T17:33:42.753Z,12.63
2023-02-28T17:36:15.961Z,7.47
2023-02-28T17:38:42.965Z,7.18
2023-02-28T17:41:11.729Z,7.30
2023-02-28T17:43:38.100Z,8.27
2023-02-28T17:46:06.186Z,7.68
2023-02-28T17:48:34.216Z,9.00
2023-02-28T17:51:00.847Z,8.38
2023-02-28T17:53:28.116Z,6.60
2023-02-28T17:55:54.559Z,6.38
2023-02-28T17:58:21.237Z,6.45
2023-02-28T18:00:48.752Z,6.25
2023-02-28T18:03:15.212Z,7.30
2023-02-28T18:05:41.816Z,5.97
2023-02-28T18:08:11.231Z,6.43
2023-02-28T18:10:37.618Z,5.38
2023-02-28T18:13:04.644Z,6.28
2023-02-28T18:15:31.130Z,7.07
2023-02-28T18:17:57.925Z,9.18
2023-02-28T18:20:24.345Z,6.43
2023-02-28T18:22:50.795Z,6.68
2023-02-28T18:25:17.974Z,5.55
2023-02-28T18:27:58.141Z,6.00
2023-02-28T18:30:30.237Z,5.97
2023-02-28T18:32:57.085Z,6.72
2023-02-28T18:35:36.942Z,6.32
2023-02-28T18:38:09.535Z,5.50
2023-02-28T18:40:36.736Z,6.13
2023-02-28T18:43:04.090Z,6.18
2023-02-28T18:45:31.163Z,6.10
2023-02-28T18:47:57.815Z,7.88
2023-02-28T18:50:24.393Z,6.68
2023-02-28T18:52:51.428Z,7.47
2023-02-28T18:55:19.034Z,7.22
2023-02-28T18:57:47.314Z,7.63
2023-02-28T19:00:18.162Z,7.93
2023-02-28T19:02:44.548Z,8.25
2023-02-28T19:05:12.282Z,10.40
2023-02-28T19:07:38.808Z,15.27
2023-02-28T19:10:05.795Z,10.27
2023-02-28T19:12:36.869Z,10.68
2023-02-28T19:15:05.080Z,9.80
2023-02-28T19:17:32.266Z,9.80
2023-02-28T19:19:58.937Z,9.68
2023-02-28T19:22:26.257Z,10.00
2023-02-28T19:24:52.957Z,8.95
2023-02-28T19:27:20.004Z,8.82
2023-02-28T19:29:50.801Z,7.63
2023-02-28T19:32:19.056Z,7.15
2023-02-28T19:34:46.045Z,7.10
2023-02-28T19:37:12.957Z,7.88
2023-02-28T19:39:42.221Z,10.45
2023-02-28T19:42:15.046Z,7.22
2023-02-28T19:44:42.056Z,6.72
2023-02-28T19:47:08.836Z,7.13
2023-02-28T19:49:35.339Z,6.97
2023-02-28T19:52:01.820Z,7.65
2023-02-28T19:54:28.281Z,7.65
2023-02-28T19:56:57.514Z,6.30
2023-02-28T19:59:38.221Z,8.50
2023-02-28T20:02:11.944Z,8.70
2023-02-28T20:04:38.420Z,6.68
2023-02-28T20:07:04.897Z,7.28
2023-02-28T20:09:32.042Z,6.05
2023-02-28T20:12:01.626Z,6.63
2023-02-28T20:14:28.204Z,6.22
2023-02-28T20:16:56.555Z,5.80
2023-02-28T20:19:24.247Z,5.05
2023-02-28T20:21:50.638Z,6.15
2023-02-28T20:24:17.176Z,6.18
2023-02-28T20:26:43.690Z,5.65
2023-02-28T20:29:10.158Z,6.47
2023-02-28T20:31:37.638Z,6.82
2023-02-28T20:34:05.159Z,5.72
2023-02-28T20:36:31.850Z,5.82
2023-02-28T20:39:00.268Z,5.07
2023-02-28T20:41:27.019Z,5.28
2023-02-28T20:44:03.019Z,5.63
2023-02-28T20:46:31.452Z,6.18
2023-02-28T20:48:58.117Z,5.10
2023-02-28T20:51:24.518Z,5.78
2023-02-28T20:53:50.912Z,4.97
2023-02-28T20:56:22.243Z,6.80
2023-02-28T20:58:51.485Z,5.55
2023-02-28T21:01:25.625Z,5.80
2023-02-28T21:03:57.118Z,5.25
2023-02-28T21:06:26.427Z,6.03
2023-02-28T21:08:53.284Z,6.43
2023-02-28T21:11:24.772Z,6.65
2023-02-28T21:13:52.263Z,6.82
2023-02-28T21:16:25.524Z,5.88
2023-02-28T21:18:55.386Z,7.88
2023-02-28T21:21:23.708Z,7.15
2023-02-28T21:23:52.618Z,5.20
2023-02-28T21:26:21.494Z,5.60
2023-02-28T21:28:56.527Z,5.68
2023-02-28T21:31:24.978Z,6.88
2023-02-28T21:33:54.459Z,5.25
2023-02-28T21:36:23.373Z,5.37
2023-02-28T21:38:55.860Z,5.63
2023-02-28T21:41:24.072Z,5.75
2023-02-28T21:43:51.237Z,7.22
2023-02-28T21:46:28.340Z,6.13
2023-02-28T21:48:55.689Z,6.63
2023-02-28T21:51:25.485Z,5.30
2023-02-28T21:53:52.060Z,5.43
2023-02-28T21:56:27.039Z,6.57
2023-02-28T21:59:00.229Z,6.25
2023-02-28T22:01:48.732Z,6.75
2023-02-28T22:04:22.986Z,6.90
2023-02-28T22:06:52.038Z,6.47
2023-02-28T22:09:18.455Z,6.05
2023-02-28T22:11:45.471Z,6.95
2023-02-28T22:14:12.658Z,5.60
2023-02-28T22:16:50.842Z,5.65
2023-02-28T22:19:18.888Z,5.30
2023-02-28T22:21:46.699Z,6.18
2023-02-28T22:24:13.089Z,5.82
2023-02-28T22:26:39.464Z,5.65
2023-02-28T22:29:06.299Z,5.70
2023-02-28T22:31:34.950Z,6.53
2023-02-28T22:34:06.020Z,5.75
2023-02-28T22:36:33.142Z,6.47
2023-02-28T22:39:00.757Z,6.25
2023-02-28T22:41:28.239Z,6.43
2023-02-28T22:44:00.807Z,5.95
2023-02-28T22:46:29.141Z,6.32
2023-02-28T22:48:57.641Z,6.53
2023-02-28T22:51:25.749Z,5.50
2023-02-28T22:53:54.396Z,6.72
2023-02-28T22:56:23.343Z,5.80
2023-02-28T22:58:51.116Z,5.75
2023-02-28T23:01:18.196Z,6.88
2023-02-28T23:03:44.673Z,5.35
2023-02-28T23:06:13.577Z,6.40
2023-02-28T23:08:40.844Z,7.93
2023-02-28T23:11:07.193Z,6.30
2023-02-28T23:13:33.609Z,6.18
2023-02-28T23:15:59.993Z,6.65
2023-02-28T23:18:26.405Z,6.90
2023-02-28T23:20:52.764Z,6.65
2023-02-28T23:23:19.549Z,7.38
2023-02-28T23:25:45.903Z,6.68
2023-02-28T23:28:12.307Z,7.13
2023-02-28T23:30:38.780Z,6.82
2023-02-28T23:33:06.158Z,8.13
2023-02-28T23:35:33.407Z,5.68
2023-02-28T23:38:00.115Z,6.15
2023-02-28T23:40:26.842Z,8.50
2023-02-28T23:42:53.572Z,6.55
2023-02-28T23:45:19.976Z,5.90
2023-02-28T23:47:46.386Z,8.50
2023-02-28T23:50:13.528Z,6.03
2023-02-28T23:52:40.498Z,6.03
2023-02-28T23:55:07.388Z,5.82
2023-02-28T23:57:34.707Z,6.90
